Time;durP1;ratioP1;P1;durP2;ratioP2;P2;SDS_P1;SDS_P2;PMS_P1;PMS_P2;Temp;Humidity;BMP_temperature;BMP_pressure;BME280_temperature;BME280_humidity;BME280_pressure;Samples;Min_cycle;Max_cycle;Signal;HPM_P1;HPM_P2
2021/04/07 00:02:13;;;;;;;10.28;5.65;;;;;;;-0.32;70.19;99641.59;1648381;84;22316;-73
2021/04/07 00:05:12;;;;;;;7.75;4.85;;;;;;;-0.32;70.29;99641.59;1657459;84;21224;-74
2021/04/07 00:07:57;;;;;;;9.10;5.30;;;;;;;-0.34;70.26;99645.80;1658430;84;21214;-74
2021/04/07 00:10:43;;;;;;;9.15;5.10;;;;;;;-0.36;70.31;99642.38;1661426;84;21207;-73
2021/04/07 00:13:28;;;;;;;11.85;5.03;;;;;;;-0.39;70.32;99649.55;1624452;86;21732;-74
2021/04/07 00:16:13;;;;;;;7.75;5.40;;;;;;;-0.43;70.32;99650.34;1657561;86;21250;-74
2021/04/07 00:18:59;;;;;;;9.30;5.12;;;;;;;-0.43;70.46;99646.95;1624291;86;21237;-74
2021/04/07 00:21:44;;;;;;;11.70;5.95;;;;;;;-0.44;70.48;99643.97;1622110;88;21223;-73
2021/04/07 00:24:29;;;;;;;10.63;4.45;;;;;;;-0.44;70.54;99643.97;1616971;87;21501;-73
2021/04/07 00:27:15;;;;;;;6.87;4.45;;;;;;;-0.46;70.46;99643.10;1638463;86;22377;-73
2021/04/07 00:29:59;;;;;;;6.92;4.92;;;;;;;-0.48;70.58;99648.16;1679950;84;21214;-73
2021/04/07 00:32:44;;;;;;;8.60;4.95;;;;;;;-0.49;70.61;99641.38;1676136;84;21505;-73
2021/04/07 00:35:30;;;;;;;9.90;4.70;;;;;;;-0.51;70.65;99647.27;1648618;84;21249;-73
2021/04/07 00:38:15;;;;;;;6.27;4.67;;;;;;;-0.50;70.68;99648.98;1632515;87;21749;-74
2021/04/07 00:41:01;;;;;;;6.97;4.55;;;;;;;-0.50;70.75;99654.05;1655616;84;21253;-74
2021/04/07 00:43:46;;;;;;;8.60;4.83;;;;;;;-0.50;70.64;99656.59;1675101;84;21147;-74
2021/04/07 00:46:37;;;;;;;6.00;4.00;;;;;;;-0.53;70.78;99652.77;1667428;84;21158;-74
2021/04/07 00:49:22;;;;;;;9.93;4.37;;;;;;;-0.55;70.75;99655.30;1659996;84;21052;-74
2021/04/07 00:52:07;;;;;;;9.10;4.20;;;;;;;-0.55;70.86;99656.98;1641221;85;21533;-74
2021/04/07 00:54:53;;;;;;;6.92;4.30;;;;;;;-0.53;70.94;99656.58;1647096;85;21178;-74
2021/04/07 00:57:39;;;;;;;7.45;4.00;;;;;;;-0.49;70.91;99657.88;1630515;85;21166;-74
2021/04/07 01:00:25;;;;;;;5.35;3.40;;;;;;;-0.49;71.00;99656.61;1662206;84;21003;-74
2021/04/07 01:03:13;;;;;;;8.40;3.50;;;;;;;-0.45;71.12;99662.17;1631333;86;21474;-74
2021/04/07 01:05:57;;;;;;;6.10;3.40;;;;;;;-0.40;71.10;99659.69;1665358;84;21143;-74
2021/04/07 01:08:42;;;;;;;8.33;4.42;;;;;;;-0.38;71.08;99655.48;1665492;84;21024;-74
2021/04/07 01:11:27;;;;;;;5.22;4.30;;;;;;;-0.34;71.21;99659.77;1642875;87;21202;-74
2021/04/07 01:14:12;;;;;;;6.23;3.77;;;;;;;-0.30;71.22;99663.20;1629670;87;21294;-76
2021/04/07 01:16:58;;;;;;;8.58;4.53;;;;;;;-0.26;71.17;99663.25;1650184;85;21257;-76
2021/04/07 01:19:43;;;;;;;6.45;4.85;;;;;;;-0.25;71.23;99662.84;1645541;85;21258;-76
2021/04/07 01:22:32;;;;;;;6.87;4.10;;;;;;;-0.22;71.35;99665.00;1642867;86;21554;-75
2021/04/07 01:25:17;;;;;;;7.47;4.50;;;;;;;-0.16;71.38;99670.57;1636816;86;21242;-74
2021/04/07 01:28:02;;;;;;;5.65;4.78;;;;;;;-0.14;71.36;99665.94;1632969;87;21260;-74
2021/04/07 01:30:47;;;;;;;8.40;5.40;;;;;;;-0.11;71.44;99670.20;1629417;86;21593;-74
2021/04/07 01:33:32;;;;;;;7.42;4.65;;;;;;;-0.08;71.43;99669.83;1604951;89;21225;-75
2021/04/07 01:36:23;;;;;;;6.75;4.30;;;;;;;-0.03;71.53;99673.69;1612739;86;21696;-74
2021/04/07 01:39:07;;;;;;;8.10;4.83;;;;;;;0.00;71.49;99672.00;1615900;87;21259;-74
2021/04/07 01:41:53;;;;;;;6.03;4.97;;;;;;;0.04;71.56;99674.58;1617010;86;21222;-74
2021/04/07 01:44:39;;;;;;;;;;;;;;;0.06;71.40;99671.64;1614550;87;21263;-74
2021/04/07 01:47:25;;;;;;;6.90;4.33;;;;;;;0.07;71.72;99668.27;1622671;87;20332;-73
2021/04/07 01:50:10;;;;;;;5.70;4.28;;;;;;;0.10;71.70;99670.84;1626287;86;21210;-75
2021/04/07 01:52:55;;;;;;;9.43;5.72;;;;;;;0.13;71.72;99672.14;1624660;87;21576;-74
2021/04/07 01:55:40;;;;;;;7.65;4.95;;;;;;;0.16;71.69;99674.30;1630446;86;21254;-73
2021/04/07 01:58:25;;;;;;;6.73;4.40;;;;;;;0.19;71.78;99674.75;1611615;86;22257;-73
2021/04/07 02:01:11;;;;;;;5.40;4.83;;;;;;;0.23;71.71;99675.22;1620509;87;21226;-75
2021/04/07 02:03:56;;;;;;;10.23;4.87;;;;;;;0.25;71.66;99679.48;1619936;86;21212;-75
2021/04/07 02:06:43;;;;;;;7.62;4.80;;;;;;;0.27;71.82;99679.50;1613737;86;21293;-75
2021/04/07 02:09:28;;;;;;;;;;;;;;;0.30;71.74;99679.53;1623438;86;21241;-75
2021/04/07 02:12:13;;;;;;;6.67;4.53;;;;;;;0.30;71.91;99670.21;1611351;87;20292;-75
2021/04/07 02:14:58;;;;;;;8.70;4.93;;;;;;;0.30;71.75;99677.84;1631530;87;21202;-75
2021/04/07 02:17:46;;;;;;;8.07;5.03;;;;;;;0.31;71.88;99687.17;1630776;87;21254;-75
2021/04/07 02:20:30;;;;;;;8.15;5.00;;;;;;;0.33;71.89;99685.50;1626804;87;21557;-74
2021/04/07 02:23:16;;;;;;;7.37;5.17;;;;;;;0.35;71.86;99685.94;1626868;86;21218;-74
2021/04/07 02:26:01;;;;;;;7.45;5.28;;;;;;;0.36;71.94;99688.49;1644593;85;21242;-75
2021/04/07 02:28:46;;;;;;;8.40;5.42;;;;;;;0.39;72.05;99688.52;1633699;86;21270;-75
2021/04/07 02:31:31;;;;;;;8.05;4.72;;;;;;;0.43;71.96;99691.53;1573682;88;644610;-74
2021/04/07 02:34:16;;;;;;;7.85;4.85;;;;;;;0.45;71.97;99692.40;1569160;89;22326;-75
2021/04/07 02:37:01;;;;;;;6.05;4.67;;;;;;;0.48;72.06;99691.16;1572063;89;21244;-75
2021/04/07 02:39:48;;;;;;;6.20;4.80;;;;;;;0.52;72.11;99695.86;1553396;90;21255;-74
2021/04/07 02:42:33;;;;;;;11.10;5.25;;;;;;;0.54;72.10;99693.73;1574977;89;25360;-74
2021/04/07 02:45:18;;;;;;;6.93;5.73;;;;;;;0.56;72.06;99694.59;1568975;89;21042;-74
2021/04/07 02:48:03;;;;;;;9.43;5.30;;;;;;;0.47;71.94;99677.16;1575025;90;21744;-74
2021/04/07 02:50:48;;;;;;;8.70;5.03;;;;;;;0.59;72.22;99697.59;1570964;89;21437;-74
2021/04/07 02:53:33;;;;;;;11.97;6.28;;;;;;;0.63;72.21;99701.87;1542287;89;21410;-76
2021/04/07 02:56:18;;;;;;;16.40;7.37;;;;;;;0.63;72.21;99695.51;1567925;89;21172;-75
2021/04/07 02:59:04;;;;;;;20.17;7.83;;;;;;;0.65;72.19;99704.00;1577775;89;21963;-75
2021/04/07 03:01:49;;;;;;;20.60;7.78;;;;;;;0.65;72.23;99699.77;1564528;89;21202;-75
2021/04/07 03:04:34;;;;;;;21.42;8.85;;;;;;;0.67;72.22;99699.78;1563008;89;21197;-75
2021/04/07 03:07:18;;;;;;;24.20;8.93;;;;;;;0.69;72.31;99701.92;1573547;89;21059;-75
2021/04/07 03:10:05;;;;;;;23.62;9.40;;;;;;;0.74;72.31;99707.05;1573731;89;21207;-76
2021/04/07 03:12:49;;;;;;;24.18;8.68;;;;;;;0.73;72.23;99704.93;1588759;89;21466;-75
2021/04/07 03:15:34;;;;;;;18.62;8.75;;;;;;;0.74;72.36;99699.00;1567146;89;21164;-75
2021/04/07 03:18:20;;;;;;;23.75;9.48;;;;;;;0.77;72.36;99696.91;1574587;89;21249;-75
2021/04/07 03:21:05;;;;;;;22.00;9.53;;;;;;;0.79;72.38;99697.35;1574246;89;21715;-75
2021/04/07 03:23:50;;;;;;;14.35;7.40;;;;;;;0.82;72.44;99688.89;1565219;89;21272;-75
2021/04/07 03:26:35;;;;;;;14.35;6.60;;;;;;;0.82;72.39;99695.25;1570997;90;21264;-75
2021/04/07 03:29:21;;;;;;;11.43;6.30;;;;;;;0.82;72.37;99699.06;1557812;90;21256;-75
2021/04/07 03:32:06;;;;;;;6.45;5.10;;;;;;;0.83;72.46;99695.27;1564888;90;21719;-75
2021/04/07 03:34:51;;;;;;;9.85;5.03;;;;;;;0.83;72.44;99702.05;1560492;90;21272;-75
2021/04/07 03:37:36;;;;;;;5.25;4.08;;;;;;;0.83;72.42;99713.08;1565869;89;21680;-75
2021/04/07 03:40:21;;;;;;;9.15;4.58;;;;;;;0.82;72.45;99720.28;1554243;90;21217;-74
2021/04/07 03:43:08;;;;;;;8.67;4.40;;;;;;;0.84;72.41;99713.93;1553605;90;21248;-74
2021/04/07 03:45:56;;;;;;;5.42;3.98;;;;;;;0.83;72.49;99714.77;1544422;88;21316;-74
2021/04/07 03:48:41;;;;;;;12.23;5.60;;;;;;;0.83;72.50;99700.77;1564281;90;21806;-74
2021/04/07 03:51:26;;;;;;;16.40;6.12;;;;;;;0.86;72.46;99700.80;1555713;90;21225;-74
2021/04/07 03:54:11;;;;;;;12.23;5.62;;;;;;;0.89;72.46;99702.09;1565123;89;21551;-76
2021/04/07 03:56:56;;;;;;;9.83;4.67;;;;;;;0.88;72.45;99706.34;1557016;90;21289;-74
2021/04/07 03:59:41;;;;;;;5.00;3.75;;;;;;;0.90;72.51;99707.20;1563802;90;21235;-74
2021/04/07 04:02:27;;;;;;;4.78;3.70;;;;;;;0.95;72.50;99718.69;1568976;90;21245;-74
2021/04/07 04:05:13;;;;;;;7.42;3.15;;;;;;;0.97;72.56;99718.28;1550577;91;21577;-74
2021/04/07 04:07:57;;;;;;;4.60;3.15;;;;;;;0.98;72.51;99711.08;1561212;90;21834;-76
2021/04/07 04:10:43;;;;;;;7.08;3.40;;;;;;;0.98;72.51;99704.30;1549489;90;21251;-75
2021/04/07 04:13:27;;;;;;;4.33;3.30;;;;;;;1.01;72.55;99717.47;1560885;89;21256;-77
2021/04/07 04:16:13;;;;;;;4.60;3.30;;;;;;;1.01;72.56;99711.11;1553611;90;21245;-76
2021/04/07 04:18:58;;;;;;;6.72;4.05;;;;;;;1.02;72.59;99716.63;1537900;91;21559;-77
2021/04/07 04:21:43;;;;;;;9.30;4.75;;;;;;;1.05;72.57;99715.35;1562475;89;21260;-76
2021/04/07 04:24:28;;;;;;;7.00;3.55;;;;;;;1.04;72.55;99726.83;1561950;90;21257;-76
2021/04/07 04:27:14;;;;;;;5.47;3.33;;;;;;;1.03;72.67;99728.52;1609237;87;21220;-77
2021/04/07 04:29:59;;;;;;;4.33;3.45;;;;;;;1.04;72.79;99732.73;1600052;88;21296;-77
2021/04/07 04:32:44;;;;;;;7.67;4.05;;;;;;;1.01;72.74;99728.92;1602328;88;21285;-75
2021/04/07 04:35:29;;;;;;;7.63;4.60;;;;;;;0.96;72.96;99728.89;1603244;88;21238;-74
2021/04/07 04:38:16;;;;;;;5.22;3.22;;;;;;;0.94;73.06;99724.63;1597689;88;21957;-75
2021/04/07 04:41:01;;;;;;;4.67;3.40;;;;;;;0.95;73.12;99731.42;1598552;87;21232;-75
2021/04/07 04:43:46;;;;;;;6.87;3.95;;;;;;;0.92;73.06;99722.06;1599535;87;21593;-79
2021/04/07 04:46:31;;;;;;;6.87;4.15;;;;;;;0.86;73.05;99732.61;1605124;88;21600;-78
2021/04/07 04:49:17;;;;;;;10.07;4.97;;;;;;;0.82;73.09;99738.51;1604363;88;21239;-78
2021/04/07 04:52:03;;;;;;;;;;;;;;;0.76;73.22;99739.30;1605086;88;21236;-78
2021/04/07 04:54:49;;;;;;;7.83;3.52;;;;;;;0.73;73.36;99744.36;1603157;87;20305;-79
2021/04/07 04:57:34;;;;;;;5.60;4.20;;;;;;;0.72;73.39;99750.70;1612136;87;21162;-79
2021/04/07 05:00:20;;;;;;;7.20;4.47;;;;;;;0.70;73.31;99759.59;1607553;88;21156;-79
2021/04/07 05:03:05;;;;;;;5.65;3.98;;;;;;;0.68;73.40;99761.70;1586006;88;21225;-79
2021/04/07 05:05:49;;;;;;;10.10;4.33;;;;;;;0.64;73.34;99759.53;1610135;88;21130;-79
2021/04/07 05:08:34;;;;;;;9.83;5.70;;;;;;;0.63;73.59;99768.00;1601225;88;21187;-76
2021/04/07 05:11:19;;;;;;;10.68;6.40;;;;;;;0.66;73.59;99771.44;1607778;88;21073;-75
2021/04/07 05:14:05;;;;;;;16.10;8.00;;;;;;;0.71;73.65;99773.17;1604466;88;21020;-75
2021/04/07 05:16:49;;;;;;;14.20;7.53;;;;;;;0.74;73.71;99775.33;1592165;88;21185;-75
2021/04/07 05:19:34;;;;;;;18.23;8.05;;;;;;;0.78;73.77;99778.34;1607128;88;21173;-78
2021/04/07 05:22:19;;;;;;;11.20;7.33;;;;;;;0.83;73.74;99781.78;1594277;88;21043;-76
2021/04/07 05:25:06;;;;;;;11.15;6.62;;;;;;;0.85;73.78;99785.20;1597455;86;21171;-76
2021/04/07 05:27:51;;;;;;;9.10;5.70;;;;;;;0.91;73.70;99794.58;1599000;88;21472;-76
2021/04/07 05:33:41;;;;;;;8.78;4.80;;;;;;;0.94;73.67;99794.61;1595658;88;21181;-76
2021/04/07 05:36:26;;;;;;;7.80;4.40;;;;;;;0.94;73.70;99798.02;1593414;88;21905;-75
2021/04/07 05:39:11;;;;;;;10.88;5.72;;;;;;;0.92;73.66;99802.23;1599005;87;21240;-75
2021/04/07 05:41:56;;;;;;;9.68;6.15;;;;;;;0.93;73.85;99803.94;1595945;87;21245;-75
2021/04/07 05:44:41;;;;;;;9.13;5.35;;;;;;;0.95;73.86;99810.32;1596893;89;21233;-76
2021/04/07 05:47:26;;;;;;;8.18;4.50;;;;;;;0.99;74.00;99811.64;1595988;87;21682;-76
2021/04/07 05:50:11;;;;;;;7.97;4.30;;;;;;;1.04;74.00;99817.19;1573348;89;21241;-76
2021/04/07 05:52:56;;;;;;;8.03;4.65;;;;;;;1.06;73.93;99819.30;1594517;89;21237;-76
2021/04/07 05:55:52;;;;;;;10.35;4.78;;;;;;;1.08;74.01;99827.39;1591811;88;21202;-75
2021/04/07 05:58:36;;;;;;;8.98;5.58;;;;;;;1.10;74.02;99830.80;1594870;89;21187;-76
2021/04/07 06:01:21;;;;;;;11.28;5.08;;;;;;;1.14;74.01;99838.91;1595173;88;21171;-75
2021/04/07 06:04:06;;;;;;;6.60;4.40;;;;;;;1.16;74.08;99836.38;1594565;88;22344;-76
2021/04/07 06:06:34;;;;;;;14.20;6.62;;;;;;;1.20;74.08;99828.77;1593690;89;21609;-76
2021/04/07 06:09:00;;;;;;;15.60;6.47;;;;;;;1.26;74.13;99836.89;1590978;88;21673;-75
2021/04/07 06:11:27;;;;;;;13.55;7.25;;;;;;;1.33;74.17;99843.33;1583501;88;592436;-75
2021/04/07 06:13:53;;;;;;;;;;;;;;;1.38;74.07;99845.91;1593183;90;21829;-75
2021/04/07 06:16:20;;;;;;;15.00;6.33;;;;;;;1.41;74.14;99845.09;1590192;89;20288;-75
2021/04/07 06:18:47;;;;;;;17.45;6.95;;;;;;;1.44;74.18;99847.23;1587872;90;21648;-76
2021/04/07 06:21:14;;;;;;;17.73;7.30;;;;;;;1.50;74.15;99847.30;1590680;90;21257;-75
2021/04/07 06:23:40;;;;;;;11.22;5.55;;;;;;;1.56;74.14;99850.31;1588039;89;28392;-75
2021/04/07 06:26:07;;;;;;;12.85;5.55;;;;;;;1.64;74.25;99858.84;1590670;90;21781;-75
2021/04/07 06:28:33;;;;;;;7.83;4.47;;;;;;;1.71;74.18;99857.19;1589629;90;21727;-75
2021/04/07 06:30:59;;;;;;;6.55;4.33;;;;;;;1.76;74.11;99860.62;1588998;88;21295;-75
2021/04/07 06:33:30;;;;;;;7.37;3.80;;;;;;;1.77;74.12;99861.06;1594144;88;21282;-75
2021/04/07 06:36:03;;;;;;;10.68;3.67;;;;;;;1.81;74.12;99860.24;1594756;88;22149;-75
2021/04/07 06:38:34;;;;;;;15.95;3.98;;;;;;;1.83;74.17;99860.69;1590928;88;22016;-75
2021/04/07 06:41:01;;;;;;;8.25;3.95;;;;;;;1.86;74.11;99859.43;1598063;88;21158;-75
2021/04/07 06:43:31;;;;;;;18.65;5.35;;;;;;;1.92;74.23;99865.84;1594526;88;21507;-75
2021/04/07 06:45:58;;;;;;;11.97;4.33;;;;;;;2.02;74.27;99869.31;1613126;87;21514;-75
2021/04/07 06:48:25;;;;;;;8.10;4.58;;;;;;;2.15;74.36;99870.22;1597230;88;21517;-74
2021/04/07 06:50:53;;;;;;;10.28;4.47;;;;;;;2.26;74.25;99874.95;1583551;88;21147;-76
2021/04/07 06:53:26;;;;;;;12.13;5.10;;;;;;;2.34;74.32;99875.85;1584460;89;21163;-75
2021/04/07 06:55:53;;;;;;;8.20;4.03;;;;;;;2.38;74.04;99879.27;1579740;89;21186;-75
2021/04/07 06:58:19;;;;;;;10.43;4.22;;;;;;;2.39;74.14;99874.18;1577806;89;21359;-75
2021/04/07 07:01:05;;;;;;;10.35;3.90;;;;;;;2.37;73.98;99880.12;1578701;89;21228;-75
2021/04/07 07:03:31;;;;;;;8.35;4.08;;;;;;;2.37;74.12;99881.39;1576090;89;21202;-75
2021/04/07 07:05:59;;;;;;;13.03;5.03;;;;;;;2.46;74.27;99881.44;1583599;89;21150;-75
2021/04/07 07:08:31;;;;;;;8.73;3.92;;;;;;;2.49;74.15;99891.24;1580938;89;21187;-75
2021/04/07 07:11:16;;;;;;;11.35;4.58;;;;;;;2.53;74.16;99892.11;1584125;88;21557;-76
2021/04/07 07:13:45;;;;;;;7.33;4.47;;;;;;;2.59;74.16;99898.09;1579500;89;21297;-75
2021/04/07 07:16:12;;;;;;;12.43;4.83;;;;;;;2.59;74.23;99898.52;1576309;89;21229;-76
2021/04/07 07:18:43;;;;;;;12.20;7.25;;;;;;;2.62;74.16;99903.19;1579420;89;21230;-76
2021/04/07 07:21:17;;;;;;;5.58;3.90;;;;;;;2.68;74.32;99906.19;1580477;89;21238;-76
2021/04/07 07:24:02;;;;;;;10.58;4.95;;;;;;;2.74;74.22;99906.64;1587523;89;21167;-76
2021/04/07 07:26:48;;;;;;;10.87;4.97;;;;;;;2.77;74.23;99915.16;1582282;89;21178;-76
2021/04/07 07:29:38;;;;;;;11.65;3.90;;;;;;;2.88;74.36;99905.85;1576201;87;21262;-75
2021/04/07 07:32:34;;;;;;;13.38;4.90;;;;;;;3.05;74.39;99917.83;1575940;89;21739;-76
2021/04/07 07:35:21;;;;;;;8.60;3.98;;;;;;;3.17;74.35;99922.94;1575073;89;21238;-76
2021/04/07 07:38:06;;;;;;;19.27;7.17;;;;;;;3.20;74.20;99926.36;1577805;88;21246;-76
2021/04/07 07:41:05;;;;;;;11.45;4.08;;;;;;;3.24;74.20;99922.11;1579781;89;21266;-75
2021/04/07 07:43:51;;;;;;;8.43;3.62;;;;;;;3.27;74.04;99929.78;1572078;89;21268;-76
2021/04/07 07:46:37;;;;;;;8.35;3.33;;;;;;;3.38;74.19;99926.83;1579036;88;21245;-76
2021/04/07 07:49:23;;;;;;;8.33;4.25;;;;;;;3.58;74.27;99923.03;1578788;88;21273;-75
2021/04/07 07:52:09;;;;;;;7.35;3.02;;;;;;;3.85;74.48;99933.67;1592921;87;21318;-75
2021/04/07 07:54:54;;;;;;;7.65;3.22;;;;;;;4.29;74.18;99935.75;1570488;90;21228;-76
2021/04/07 07:57:39;;;;;;;7.15;2.75;;;;;;;4.54;74.24;99944.24;1569373;89;21247;-76
2021/04/07 08:00:26;;;;;;;8.95;2.95;;;;;;;4.72;73.99;99941.18;1558532;90;21448;-76
2021/04/07 08:03:13;;;;;;;;;;;;;;;4.80;73.87;99949.27;1573162;90;21183;-76
2021/04/07 08:06:00;;;;;;;6.33;3.08;;;;;;;4.92;73.93;99947.94;1570213;89;20513;-76
2021/04/07 08:08:45;;;;;;;10.80;3.12;;;;;;;4.92;73.62;99951.78;1571524;90;21595;-76
2021/04/07 08:11:30;;;;;;;11.63;3.37;;;;;;;4.89;73.58;99959.91;1572377;90;21146;-76
2021/04/07 08:14:19;;;;;;;9.93;3.20;;;;;;;4.84;73.47;99958.64;1573135;90;21190;-75
2021/04/07 08:17:04;;;;;;;9.90;3.00;;;;;;;4.78;73.51;99961.66;1569558;90;21237;-76
2021/04/07 08:19:50;;;;;;;6.90;2.50;;;;;;;4.74;73.49;99968.48;1568765;89;21226;-76
2021/04/07 08:22:36;;;;;;;10.45;3.50;;;;;;;4.68;73.48;99957.44;1557155;90;21170;-76
2021/04/07 08:25:22;;;;;;;7.20;3.05;;;;;;;4.72;73.66;99969.34;1568515;90;21157;-76
2021/04/07 08:28:08;;;;;;;16.10;3.40;;;;;;;4.78;73.68;99973.17;1571594;90;21163;-76
2021/04/07 08:30:52;;;;;;;10.98;3.27;;;;;;;4.83;73.48;99966.33;1564723;90;21726;-76
2021/04/07 08:33:38;;;;;;;6.65;2.92;;;;;;;4.93;73.69;99971.42;1567294;89;21674;-75
2021/04/07 08:36:27;;;;;;;13.40;3.62;;;;;;;5.09;73.69;99976.06;1568086;90;21166;-75
2021/04/07 08:39:16;;;;;;;9.88;3.15;;;;;;;5.14;73.42;99974.34;1567978;90;21182;-75
2021/04/07 08:42:00;;;;;;;7.25;3.02;;;;;;;5.17;73.43;99984.57;1571958;88;21831;-76
2021/04/07 08:44:48;;;;;;;10.98;3.30;;;;;;;5.18;73.39;99983.71;1567394;90;21206;-76
2021/04/07 08:47:44;;;;;;;12.93;3.17;;;;;;;5.15;73.14;99995.69;1568701;90;21193;-76
2021/04/07 08:50:30;;;;;;;6.83;3.40;;;;;;;5.03;73.24;99991.45;1573548;90;21147;-76
2021/04/07 08:53:17;;;;;;;9.63;2.77;;;;;;;4.97;73.13;99996.60;1579344;89;21019;-76
2021/04/07 08:56:10;;;;;;;9.60;3.40;;;;;;;4.90;73.16;99994.48;1575846;89;22013;-76
2021/04/07 08:58:58;;;;;;;10.68;3.12;;;;;;;4.89;73.19;100000.47;1580501;89;21480;-76
2021/04/07 09:01:43;;;;;;;9.35;3.27;;;;;;;4.89;72.96;100003.45;1575081;87;337328;-76
2021/04/07 09:04:34;;;;;;;7.65;3.42;;;;;;;4.89;72.96;100003.45;1571041;89;21268;-76
2021/04/07 09:07:19;;;;;;;8.60;2.85;;;;;;;4.88;73.19;100010.72;1574487;89;21252;-75
2021/04/07 09:10:18;;;;;;;11.40;2.90;;;;;;;4.84;73.09;100006.03;1572101;89;21284;-76
2021/04/07 09:13:08;;;;;;;9.15;3.10;;;;;;;4.82;73.01;100012.01;1573920;89;21337;-76
2021/04/07 09:16:01;;;;;;;8.20;3.30;;;;;;;4.78;73.01;100015.44;1573536;89;21253;-76
2021/04/07 09:18:51;;;;;;;6.30;2.75;;;;;;;4.86;73.04;100012.43;1463424;88;10000280;-76
2021/04/07 09:21:33;;;;;;;8.15;2.95;;;;;;;4.98;73.17;100011.11;1575330;87;22215;-76
2021/04/07 09:24:20;;;;;;;7.28;4.05;;;;;;;5.19;73.19;100007.63;1575380;89;21599;-76
2021/04/07 09:27:05;;;;;;;;;;;;;;;5.31;73.01;100010.11;1543056;91;21714;-77
2021/04/07 09:29:52;;;;;;;12.40;3.60;;;;;;;5.24;72.52;100011.00;1511977;93;20331;-76
2021/04/07 09:32:40;;;;;;;25.15;6.35;;;;;;;5.09;72.61;100013.64;1514456;92;21498;-77
2021/04/07 09:35:24;;;;;;;19.98;5.78;;;;;;;4.95;72.68;100017.53;1504548;93;21803;-77
2021/04/07 09:38:16;;;;;;;15.35;5.70;;;;;;;4.88;72.78;100019.68;1529281;92;21295;-77
2021/04/07 09:41:12;;;;;;;8.28;3.33;;;;;;;4.91;73.03;100020.53;1519515;92;21191;-77
2021/04/07 09:43:58;;;;;;;7.33;3.02;;;;;;;4.92;72.91;100029.06;1563695;89;21204;-77
2021/04/07 09:46:56;;;;;;;7.30;2.62;;;;;;;4.97;72.91;100022.22;1539875;91;21266;-76
2021/04/07 09:49:41;;;;;;;8.60;2.67;;;;;;;5.01;72.84;100022.64;1572430;89;21273;-77
2021/04/07 09:52:26;;;;;;;7.33;2.77;;;;;;;5.05;72.83;100027.33;1581227;88;21251;-77
2021/04/07 09:55:24;;;;;;;7.35;2.90;;;;;;;5.12;72.81;100018.77;1571119;88;21267;-76
2021/04/07 09:58:09;;;;;;;6.67;2.02;;;;;;;5.29;73.06;100021.66;1587779;88;21263;-78
2021/04/07 10:00:55;;;;;;;5.08;2.00;;;;;;;5.62;73.14;100018.08;1584506;88;21617;-76
2021/04/07 10:03:52;;;;;;;9.10;2.13;;;;;;;5.81;72.63;100008.53;1587640;88;21254;-76
2021/04/07 10:06:38;;;;;;;7.00;2.00;;;;;;;5.97;72.72;100002.47;1590641;88;21183;-75
2021/04/07 10:09:10;;;;;;;7.03;2.17;;;;;;;6.08;72.41;100008.81;1588883;88;21250;-75
2021/04/07 10:11:41;;;;;;;7.62;2.37;;;;;;;6.00;71.98;100003.31;1589825;88;21598;-76
2021/04/07 10:14:10;;;;;;;8.00;2.40;;;;;;;5.84;71.93;100011.52;1566351;90;22230;-75
2021/04/07 10:16:38;;;;;;;6.85;1.95;;;;;;;5.72;71.89;100012.91;1591501;88;22040;-75
2021/04/07 10:19:10;;;;;;;6.87;1.80;;;;;;;5.64;72.01;100015.51;1587719;88;21187;-76
2021/04/07 10:21:39;;;;;;;6.92;1.98;;;;;;;5.54;71.95;100020.27;1589607;88;21239;-76
2021/04/07 10:24:07;;;;;;;3.65;2.00;;;;;;;5.43;72.02;100020.75;1568752;90;21279;-76
2021/04/07 10:26:43;;;;;;;7.58;2.12;;;;;;;5.35;71.95;100034.02;1572395;90;21231;-76
2021/04/07 10:29:28;;;;;;;5.58;1.77;;;;;;;5.25;71.92;100037.05;1588454;88;21263;-75
2021/04/07 10:31:58;;;;;;;3.77;1.30;;;;;;;4.99;71.80;100066.20;1590274;88;21294;-75
2021/04/07 10:34:34;;;;;;;4.55;1.30;;;;;;;4.58;71.77;100067.98;1587688;88;21711;-75
2021/04/07 10:37:03;;;;;;;3.95;1.30;;;;;;;4.17;72.01;100070.09;1584910;88;21253;-75
2021/04/07 10:39:42;;;;;;;3.33;1.32;;;;;;;3.80;72.00;100077.30;1540470;91;21223;-75
2021/04/07 10:42:19;;;;;;;4.15;1.45;;;;;;;3.41;72.22;100066.11;1545458;91;22419;-75
2021/04/07 10:45:04;;;;;;;4.62;1.57;;;;;;;3.24;72.47;100070.28;1546981;91;21727;-75
2021/04/07 10:47:37;;;;;;;4.92;1.52;;;;;;;3.10;72.71;100056.62;1530340;93;21209;-75
2021/04/07 10:50:08;;;;;;;6.70;2.05;;;;;;;3.01;72.87;100061.67;1543390;91;21198;-75
2021/04/07 10:52:40;;;;;;;6.22;1.87;;;;;;;2.97;72.94;100054.42;1543532;91;21549;-75
2021/04/07 10:55:14;;;;;;;;;;;;;;;2.93;72.95;100053.97;1579581;90;21146;-75
2021/04/07 10:57:47;;;;;;;4.28;2.00;;;;;;;2.93;73.09;100052.69;1574246;90;20961;-75
2021/04/07 11:00:20;;;;;;;7.08;2.60;;;;;;;2.94;73.20;100050.15;1575143;90;21746;-75
2021/04/07 11:02:48;;;;;;;;;;;;;;;3.01;73.31;100052.73;1572556;90;21717;-75
2021/04/07 11:05:19;;;;;;;8.75;3.20;;;;;;;3.19;73.59;100061.32;1574258;89;20613;-75
2021/04/07 11:07:47;;;;;;;7.95;2.37;;;;;;;3.36;73.59;100056.72;1570475;90;21692;-76
2021/04/07 11:10:16;;;;;;;4.72;1.80;;;;;;;3.56;73.55;100056.38;1575582;90;21676;-76
2021/04/07 11:12:44;;;;;;;8.28;2.98;;;;;;;3.73;73.45;100056.39;1498288;91;21277;-76
2021/04/07 11:15:16;;;;;;;6.62;1.95;;;;;;;3.88;73.46;100062.83;1551855;90;21747;-76
2021/04/07 11:17:53;;;;;;;5.47;1.95;;;;;;;3.97;73.27;100057.73;1574683;90;21688;-75
2021/04/07 11:20:28;;;;;;;6.57;2.20;;;;;;;3.96;73.02;100062.42;1573657;90;21705;-75
2021/04/07 11:22:55;;;;;;;5.67;1.92;;;;;;;3.94;73.01;100066.67;1539728;91;21472;-75
2021/04/07 11:25:22;;;;;;;;;;;;;;;3.92;73.09;100072.21;1557744;90;21215;-75
2021/04/07 11:28:01;;;;;;;7.37;1.80;;;;;;;4.01;73.38;100063.28;1572883;89;20309;-75
2021/04/07 11:30:32;;;;;;;6.00;1.85;;;;;;;4.13;73.29;100068.84;1575796;90;21277;-75
2021/04/07 11:33:03;;;;;;;3.98;1.95;;;;;;;4.26;73.33;100068.83;1535248;91;21956;-75
2021/04/07 11:35:37;;;;;;;4.25;2.00;;;;;;;4.41;73.31;100067.13;1573795;90;21272;-75
2021/04/07 11:38:02;;;;;;;7.85;2.00;;;;;;;4.56;73.27;100067.13;1575009;89;21622;-75
2021/04/07 11:43:31;;;;;;;4.85;1.90;;;;;;;4.91;73.20;100065.36;1574131;90;21825;-75
2021/04/07 11:45:54;;;;;;;5.78;2.45;;;;;;;5.09;73.01;100060.63;1577549;90;21271;-75
2021/04/07 11:48:21;;;;;;;5.33;1.72;;;;;;;5.15;72.97;100069.58;1575245;90;22065;-76
2021/04/07 11:50:49;;;;;;;3.12;1.80;;;;;;;5.24;72.95;100073.36;1574085;90;21584;-76
2021/04/07 11:53:15;;;;;;;4.00;1.72;;;;;;;5.28;72.72;100081.89;1576116;89;21681;-76
2021/04/07 11:55:44;;;;;;;4.20;1.72;;;;;;;5.35;72.87;100076.32;1562560;90;21283;-76
2021/04/07 11:58:10;;;;;;;5.53;2.17;;;;;;;5.44;72.82;100069.45;1549765;91;21263;-75
2021/04/07 12:00:36;;;;;;;;;;;;;;;5.51;73.00;100064.72;1568277;90;21696;-77
2021/04/07 12:03:04;;;;;;;5.78;1.82;;;;;;;5.60;72.83;100061.27;1565094;90;20724;-77
2021/04/07 12:05:49;;;;;;;12.78;2.17;;;;;;;5.68;72.80;100062.09;1564871;91;21251;-77
2021/04/07 12:08:22;;;;;;;4.53;1.75;;;;;;;5.82;72.78;100053.00;1566196;90;21676;-77
2021/04/07 12:11:07;;;;;;;3.67;2.00;;;;;;;5.92;72.65;100054.69;1551612;91;21271;-77
2021/04/07 12:13:53;;;;;;;5.62;1.62;;;;;;;5.94;72.38;100060.66;1561306;91;21252;-77
2021/04/07 12:16:39;;;;;;;6.78;1.70;;;;;;;5.86;72.27;100074.78;1547678;91;21239;-77
2021/04/07 12:19:25;;;;;;;3.58;1.52;;;;;;;5.64;71.79;100085.61;1562103;90;21251;-78
2021/04/07 12:22:12;;;;;;;4.10;1.15;;;;;;;5.28;72.07;100096.84;1565922;91;21242;-79
2021/04/07 12:24:56;;;;;;;4.08;1.92;;;;;;;5.07;72.10;100103.34;1571198;90;21451;-79
2021/04/07 12:27:42;;;;;;;3.27;1.10;;;;;;;4.64;72.05;100102.13;1549711;87;161822;-78
2021/04/07 12:30:27;;;;;;;2.95;1.10;;;;;;;4.33;72.24;100105.09;1579169;90;21231;-79
2021/04/07 12:33:12;;;;;;;3.08;1.27;;;;;;;4.19;72.51;100102.08;1559356;88;21506;-79
2021/04/07 12:35:58;;;;;;;2.77;1.10;;;;;;;4.09;72.71;100102.95;1570218;90;21147;-79
2021/04/07 12:38:43;;;;;;;;;;;;;;;4.02;72.59;100103.78;1579058;88;21179;-78
2021/04/07 12:41:33;;;;;;;2.90;1.00;;;;;;;3.98;72.93;100108.89;1587672;90;20191;-78
2021/04/07 12:44:17;;;;;;;4.08;1.65;;;;;;;3.98;72.74;100116.56;1574711;90;21011;-78
2021/04/07 12:47:02;;;;;;;3.08;0.98;;;;;;;3.88;72.73;100119.95;1587266;88;21041;-78
2021/04/07 12:49:46;;;;;;;3.15;1.00;;;;;;;3.73;72.70;100123.72;1587547;88;21163;-75
2021/04/07 12:52:32;;;;;;;2.87;1.32;;;;;;;3.59;72.84;100107.08;1590453;87;21127;-75
2021/04/07 12:55:16;;;;;;;5.78;2.02;;;;;;;3.54;72.84;100086.19;1591068;90;21481;-75